Time;durP1;ratioP1;P1;durP2;ratioP2;P2;SDS_P1;SDS_P2;PMS_P1;PMS_P2;Temp;Humidity;BMP_temperature;BMP_pressure;BME280_temperature;BME280_humidity;BME280_pressure;Samples;Min_cycle;Max_cycle;Signal;HPM_P1;HPM_P2
2024/03/08 00:01:16;;;;;;;27.73;10.45;;;4.60;99.90;;;;;;5053859;28;20017;-54
2024/03/08 00:03:42;;;;;;;30.63;11.90;;;4.50;99.90;;;;;;5052558;28;20028;-53
2024/03/08 00:06:08;;;;;;;31.65;11.15;;;4.50;99.90;;;;;;5053794;28;20044;-54
2024/03/08 00:08:33;;;;;;;33.08;13.02;;;4.50;99.90;;;;;;5053760;28;20033;-54
2024/03/08 00:11:00;;;;;;;33.50;10.63;;;4.50;99.90;;;;;;5053597;28;20029;-51
2024/03/08 00:13:25;;;;;;;28.55;11.13;;;4.50;99.90;;;;;;5053791;28;20086;-51
2024/03/08 00:15:51;;;;;;;33.55;11.23;;;4.50;99.90;;;;;;5053614;28;20028;-54
2024/03/08 00:18:17;;;;;;;27.25;10.80;;;4.40;99.90;;;;;;5052503;28;20030;-54
2024/03/08 00:20:44;;;;;;;38.47;11.05;;;4.40;99.90;;;;;;5053820;28;20059;-58
2024/03/08 00:23:10;;;;;;;23.80;10.57;;;4.40;99.90;;;;;;5053723;28;20044;-54
2024/03/08 00:25:36;;;;;;;22.13;9.98;;;4.40;99.90;;;;;;5053381;28;20033;-54
2024/03/08 00:28:04;;;;;;;26.48;10.98;;;4.40;99.90;;;;;;5053166;28;20190;-54
2024/03/08 00:30:31;;;;;;;23.40;9.95;;;4.40;99.90;;;;;;5053002;28;20397;-39
2024/03/08 00:32:57;;;;;;;26.10;10.73;;;4.30;99.90;;;;;;5053032;28;20045;-42
2024/03/08 00:35:22;;;;;;;26.33;11.13;;;4.30;99.90;;;;;;5053271;28;20028;-39
2024/03/08 00:37:48;;;;;;;23.25;9.48;;;4.30;99.90;;;;;;5053383;28;20503;-39
2024/03/08 00:40:14;;;;;;;24.23;10.18;;;4.30;99.90;;;;;;5053372;28;20495;-40
2024/03/08 00:42:41;;;;;;;30.65;11.13;;;4.20;99.90;;;;;;5053318;28;20055;-40
2024/03/08 00:45:07;;;;;;;28.33;11.32;;;4.30;99.90;;;;;;5052239;28;20029;-39
2024/03/08 00:47:33;;;;;;;26.50;9.77;;;4.30;99.90;;;;;;5037682;28;20469;-40
2024/03/08 00:49:59;;;;;;;28.40;9.85;;;4.30;99.90;;;;;;5044948;28;20032;-42
2024/03/08 00:52:24;;;;;;;27.88;10.82;;;4.30;99.90;;;;;;5032915;28;20034;-39
2024/03/08 00:54:50;;;;;;;21.13;10.30;;;4.30;99.90;;;;;;5033329;28;20075;-39
2024/03/08 00:57:16;;;;;;;28.35;12.02;;;4.20;99.90;;;;;;5032918;28;20033;-40
2024/03/08 00:59:42;;;;;;;20.88;9.50;;;4.20;99.90;;;;;;5033156;28;20026;-39
2024/03/08 01:02:10;;;;;;;26.63;10.95;;;4.20;99.90;;;;;;5032947;28;20029;-39
2024/03/08 01:04:36;;;;;;;20.60;9.85;;;4.10;99.90;;;;;;5052642;28;20489;-39
2024/03/08 01:07:02;;;;;;;30.02;11.35;;;4.10;99.90;;;;;;5053001;28;20032;-41
2024/03/08 01:09:28;;;;;;;28.33;10.70;;;4.10;99.90;;;;;;5052595;28;20112;-54
2024/03/08 01:11:54;;;;;;;27.00;10.68;;;4.10;99.90;;;;;;5052506;28;20047;-55
2024/03/08 01:14:25;;;;;;;26.52;10.48;;;4.00;99.90;;;;;;5052583;28;20470;-55
2024/03/08 01:16:51;;;;;;;24.83;11.18;;;4.00;99.90;;;;;;5052572;28;20016;-53
2024/03/08 01:19:17;;;;;;;32.13;10.80;;;4.00;99.90;;;;;;5051679;28;20100;-53
2024/03/08 01:21:43;;;;;;;32.03;11.35;;;4.00;99.90;;;;;;5052375;28;20025;-52
2024/03/08 01:24:09;;;;;;;35.20;12.32;;;4.00;99.90;;;;;;5052468;28;20458;-55
2024/03/08 01:26:34;;;;;;;33.85;11.48;;;4.00;99.90;;;;;;5052375;28;20032;-50
2024/03/08 01:29:03;;;;;;;23.40;10.32;;;4.00;99.90;;;;;;5052358;28;20025;-54
2024/03/08 01:31:29;;;;;;;28.23;11.68;;;3.90;99.90;;;;;;5052178;28;20096;-53
2024/03/08 01:33:56;;;;;;;26.63;10.40;;;3.90;99.90;;;;;;5051942;28;20045;-53
2024/03/08 01:36:21;;;;;;;31.20;10.48;;;3.80;99.90;;;;;;5051408;28;20029;-51
2024/03/08 01:38:47;;;;;;;30.02;10.30;;;3.90;99.90;;;;;;5052491;28;20017;-54
2024/03/08 01:41:13;;;;;;;26.05;10.27;;;3.90;99.90;;;;;;5052326;28;20230;-54
2024/03/08 01:43:39;;;;;;;25.92;10.88;;;3.90;99.90;;;;;;5052187;28;20060;-54
2024/03/08 01:46:05;;;;;;;23.58;10.40;;;3.80;99.90;;;;;;5052223;28;20040;-55
2024/03/08 01:48:31;;;;;;;44.95;11.75;;;3.80;99.90;;;;;;5052028;28;20470;-54
2024/03/08 01:50:58;;;;;;;21.35;9.60;;;3.80;99.90;;;;;;5036056;28;20033;-52
2024/03/08 01:53:30;;;;;;;27.45;11.02;;;3.80;99.90;;;;;;5034646;28;20371;-54
2024/03/08 01:56:00;;;;;;;31.73;11.35;;;3.70;99.90;;;;;;5052049;28;20029;-51
2024/03/08 01:58:30;;;;;;;28.10;10.90;;;3.70;99.90;;;;;;5052086;28;20154;-55
2024/03/08 02:00:57;;;;;;;33.22;11.77;;;3.70;99.90;;;;;;5050767;28;20027;-54
2024/03/08 02:03:23;;;;;;;29.35;10.98;;;3.70;99.90;;;;;;5051772;28;20482;-54
2024/03/08 02:05:49;;;;;;;24.48;10.85;;;3.60;99.90;;;;;;5050658;28;20075;-56
2024/03/08 02:08:16;;;;;;;34.03;11.82;;;3.60;99.90;;;;;;5051769;28;20045;-53
2024/03/08 02:10:43;;;;;;;24.08;10.70;;;3.60;99.90;;;;;;5051185;28;20051;-54
2024/03/08 02:13:10;;;;;;;23.48;10.45;;;3.60;99.90;;;;;;5051958;28;20485;-53
2024/03/08 02:15:55;;;;;;;22.75;9.98;;;3.50;99.90;;;;;;5052222;28;20512;-55
2024/03/08 02:18:22;;;;;;;34.83;11.23;;;3.50;99.90;;;;;;5051948;28;20049;-41
2024/03/08 02:21:02;;;;;;;29.35;11.93;;;3.50;99.90;;;;;;5050657;28;20056;-43
2024/03/08 02:23:28;;;;;;;24.30;10.00;;;3.50;99.90;;;;;;5055667;28;20025;-39
2024/03/08 02:25:56;;;;;;;33.70;11.85;;;3.50;99.90;;;;;;5055749;28;20440;-38
2024/03/08 02:28:22;;;;;;;29.77;11.37;;;3.50;99.90;;;;;;5055030;28;20485;-42
2024/03/08 02:30:50;;;;;;;25.55;11.45;;;3.40;99.90;;;;;;5055648;28;20123;-40
2024/03/08 02:33:17;;;;;;;23.90;10.13;;;3.40;99.90;;;;;;5055356;28;20036;-41
2024/03/08 02:35:46;;;;;;;24.90;10.98;;;3.40;99.90;;;;;;5055516;28;20029;-40
2024/03/08 02:38:16;;;;;;;29.88;11.52;;;3.40;99.90;;;;;;5055398;28;20161;-40
2024/03/08 02:40:43;;;;;;;26.02;10.90;;;3.30;99.90;;;;;;5055265;28;20040;-39
2024/03/08 02:43:09;;;;;;;28.08;11.40;;;3.30;99.90;;;;;;5055258;28;20504;-40
2024/03/08 02:45:35;;;;;;;27.40;11.30;;;3.30;99.90;;;;;;5048919;28;20107;-39
2024/03/08 02:48:01;;;;;;;27.77;12.30;;;3.30;99.90;;;;;;5055239;28;20143;-41
2024/03/08 02:50:27;;;;;;;35.25;10.85;;;3.30;99.90;;;;;;5043247;28;20485;-39
2024/03/08 02:52:53;;;;;;;31.17;10.23;;;3.30;99.90;;;;;;5035098;28;20373;-40
2024/03/08 02:55:19;;;;;;;26.73;12.43;;;3.30;99.90;;;;;;5035427;28;20018;-47
2024/03/08 02:57:47;;;;;;;28.02;11.35;;;3.30;99.90;;;;;;5035399;28;20029;-39
2024/03/08 03:00:13;;;;;;;17.37;8.13;;;3.30;99.90;;;;;;5033844;28;20025;-38
2024/03/08 03:02:39;;;;;;;24.90;11.43;;;3.30;99.90;;;;;;5047745;28;20021;-41
2024/03/08 03:05:06;;;;;;;20.17;10.18;;;3.20;99.90;;;;;;5055175;28;20539;-39
2024/03/08 03:07:37;;;;;;;23.50;10.40;;;3.20;99.90;;;;;;5054863;28;20090;-40
2024/03/08 03:10:03;;;;;;;23.52;10.43;;;3.20;99.90;;;;;;5054846;28;20037;-42
2024/03/08 03:12:31;;;;;;;25.20;11.80;;;3.10;99.90;;;;;;5054705;28;20065;-39
2024/03/08 03:14:57;;;;;;;22.50;8.67;;;3.10;99.90;;;;;;5054839;28;20478;-40
2024/03/08 03:17:24;;;;;;;25.67;10.57;;;3.10;99.90;;;;;;5054885;28;20502;-40
2024/03/08 03:19:51;;;;;;;27.38;11.90;;;3.10;99.90;;;;;;5054050;28;20024;-47
2024/03/08 03:22:18;;;;;;;26.47;12.77;;;3.00;99.90;;;;;;5054957;28;20486;-39
2024/03/08 03:24:46;;;;;;;24.63;11.00;;;3.00;99.90;;;;;;5054764;28;20386;-45
2024/03/08 03:27:12;;;;;;;23.65;10.93;;;3.00;99.90;;;;;;5052909;28;20029;-43
2024/03/08 03:29:45;;;;;;;31.02;12.25;;;3.00;99.90;;;;;;5054838;28;20477;-39
2024/03/08 03:32:11;;;;;;;27.55;11.52;;;3.00;99.90;;;;;;5054355;28;20065;-42
2024/03/08 03:34:38;;;;;;;21.35;10.55;;;2.90;99.90;;;;;;5053021;28;20049;-38
2024/03/08 03:37:04;;;;;;;29.92;11.57;;;2.90;99.90;;;;;;5053552;28;20393;-40
2024/03/08 03:39:48;;;;;;;24.80;10.50;;;2.90;99.90;;;;;;5054544;28;20545;-42
2024/03/08 03:42:14;;;;;;;32.63;12.85;;;3.00;99.90;;;;;;5054516;28;20025;-39
2024/03/08 03:44:43;;;;;;;28.67;12.05;;;2.90;99.90;;;;;;5054224;28;20392;-41
2024/03/08 03:47:09;;;;;;;21.88;9.70;;;2.90;99.90;;;;;;5033512;28;20048;-40
2024/03/08 03:49:34;;;;;;;23.48;12.10;;;2.90;99.90;;;;;;5041046;28;20393;-38
2024/03/08 03:52:00;;;;;;;23.35;11.32;;;2.90;99.90;;;;;;5035658;28;20025;-50
2024/03/08 03:54:25;;;;;;;26.23;10.65;;;2.90;99.90;;;;;;5045795;28;20064;-39
2024/03/08 03:56:53;;;;;;;26.90;11.07;;;2.90;99.90;;;;;;5033997;28;20108;-42
2024/03/08 03:59:19;;;;;;;23.70;10.27;;;2.90;99.90;;;;;;5034451;28;20025;-39
2024/03/08 04:01:44;;;;;;;30.05;12.25;;;2.90;99.90;;;;;;5033824;28;20505;-39
2024/03/08 04:04:12;;;;;;;29.65;11.50;;;2.80;99.90;;;;;;5033888;28;20053;-39
2024/03/08 04:06:38;;;;;;;30.00;11.80;;;2.80;99.90;;;;;;5033851;28;20394;-39
2024/03/08 04:09:04;;;;;;;26.50;10.48;;;2.80;99.90;;;;;;5034858;28;20022;-45
2024/03/08 04:11:30;;;;;;;24.15;10.77;;;2.80;99.90;;;;;;5032501;28;20036;-40
2024/03/08 04:13:56;;;;;;;23.20;10.82;;;2.70;99.90;;;;;;5033904;28;20030;-40
2024/03/08 04:16:22;;;;;;;26.00;11.18;;;2.70;99.90;;;;;;5033868;28;20037;-39
2024/03/08 04:18:47;;;;;;;29.35;10.23;;;2.70;99.90;;;;;;5033771;28;20026;-39
2024/03/08 04:21:13;;;;;;;22.75;11.20;;;2.70;99.90;;;;;;5032334;28;20025;-40
2024/03/08 04:23:39;;;;;;;24.38;11.13;;;2.70;99.90;;;;;;5034704;28;20056;-38
2024/03/08 04:26:06;;;;;;;27.23;13.13;;;2.70;99.90;;;;;;5033366;28;20482;-38
2024/03/08 04:28:32;;;;;;;28.17;11.02;;;2.70;99.90;;;;;;5044399;28;20129;-41
2024/03/08 04:31:00;;;;;;;25.95;11.20;;;2.70;99.90;;;;;;5053259;28;20108;-40
2024/03/08 04:33:26;;;;;;;29.60;10.88;;;2.70;99.90;;;;;;5052952;28;20073;-42
2024/03/08 04:35:52;;;;;;;23.45;11.13;;;2.70;99.90;;;;;;5053565;28;20377;-39
2024/03/08 04:38:17;;;;;;;29.42;12.18;;;2.70;99.90;;;;;;5045696;28;20390;-53
2024/03/08 04:40:43;;;;;;;29.35;12.15;;;2.70;99.90;;;;;;5031922;28;20037;-53
2024/03/08 04:43:10;;;;;;;22.98;10.45;;;2.60;99.90;;;;;;5031830;28;20017;-53
2024/03/08 04:45:37;;;;;;;27.45;11.65;;;2.60;99.90;;;;;;5031518;28;20083;-54
2024/03/08 04:48:02;;;;;;;28.95;11.73;;;2.60;99.90;;;;;;5033196;28;20033;-54
2024/03/08 04:50:29;;;;;;;24.40;11.27;;;2.60;99.90;;;;;;5032865;28;20116;-55
2024/03/08 04:52:55;;;;;;;25.25;11.50;;;2.60;99.90;;;;;;5035647;28;20505;-53
2024/03/08 04:55:21;;;;;;;27.60;11.82;;;2.60;99.90;;;;;;5052839;28;20107;-54
2024/03/08 04:57:48;;;;;;;32.60;11.98;;;2.60;99.90;;;;;;5047236;28;20111;-50
2024/03/08 05:00:14;;;;;;;28.27;12.15;;;2.60;99.90;;;;;;5032840;28;20021;-53
2024/03/08 05:02:44;;;;;;;32.00;11.55;;;2.60;99.90;;;;;;5034954;28;20034;-55
2024/03/08 05:05:12;;;;;;;29.92;12.82;;;2.60;99.90;;;;;;5052970;28;20025;-55
2024/03/08 05:07:41;;;;;;;24.02;10.77;;;2.60;99.90;;;;;;5047800;28;20509;-54
2024/03/08 05:10:07;;;;;;;23.55;10.98;;;2.60;99.90;;;;;;5032690;28;20033;-53
2024/03/08 05:12:33;;;;;;;31.80;12.90;;;2.60;99.90;;;;;;5032547;28;20030;-54
2024/03/08 05:15:00;;;;;;;27.02;12.20;;;2.60;99.90;;;;;;5032840;28;20475;-42
2024/03/08 05:17:25;;;;;;;41.40;13.30;;;2.50;99.90;;;;;;5034469;28;20466;-54
2024/03/08 05:19:51;;;;;;;26.70;11.98;;;2.50;99.90;;;;;;5052469;28;20075;-54
2024/03/08 05:22:19;;;;;;;27.27;12.00;;;2.50;99.90;;;;;;5052689;28;20021;-54
2024/03/08 05:24:45;;;;;;;26.20;11.93;;;2.50;99.90;;;;;;5033831;28;20492;-37
2024/03/08 05:27:12;;;;;;;31.63;12.00;;;2.50;99.90;;;;;;5032479;28;20100;-39
2024/03/08 05:29:38;;;;;;;32.33;11.38;;;2.50;99.90;;;;;;5052338;28;20032;-38
2024/03/08 05:32:04;;;;;;;31.92;11.93;;;2.50;99.90;;;;;;5052235;28;20471;-42
2024/03/08 05:34:30;;;;;;;26.52;11.95;;;2.50;99.90;;;;;;5052104;28;20047;-40
2024/03/08 05:36:57;;;;;;;33.28;12.27;;;2.50;99.90;;;;;;5052223;28;20071;-38
2024/03/08 05:39:23;;;;;;;29.05;11.50;;;2.50;99.90;;;;;;5052067;28;20029;-40
2024/03/08 05:41:50;;;;;;;24.45;10.93;;;2.50;99.90;;;;;;5051667;28;20108;-39
2024/03/08 05:44:17;;;;;;;24.15;11.00;;;2.50;99.90;;;;;;5052394;28;20017;-38
2024/03/08 05:46:42;;;;;;;26.33;11.50;;;2.50;99.90;;;;;;5052219;28;20485;-39
2024/03/08 05:49:09;;;;;;;34.10;11.40;;;2.50;99.90;;;;;;5050692;28;20056;-50
2024/03/08 05:51:36;;;;;;;26.58;10.95;;;2.40;99.90;;;;;;5032200;28;20704;-54
2024/03/08 05:54:08;;;;;;;26.40;12.18;;;2.40;99.90;;;;;;5046706;28;20014;-55
2024/03/08 05:56:35;;;;;;;29.95;11.68;;;2.50;99.90;;;;;;5052878;28;20040;-54
2024/03/08 05:59:01;;;;;;;26.92;11.80;;;2.50;99.90;;;;;;5056471;28;20542;-54
2024/03/08 06:01:27;;;;;;;26.42;11.35;;;2.50;99.90;;;;;;5055384;28;20111;-54
2024/03/08 06:03:55;;;;;;;26.23;11.88;;;2.50;99.90;;;;;;5056343;28;20017;-54
2024/03/08 06:06:22;;;;;;;;;;;2.50;99.90;;;;;;5056348;28;20104;-54
2024/03/08 06:08:49;;;;;;;30.88;12.02;;;2.50;99.90;;;;;;5046179;28;20340;-54
2024/03/08 06:11:15;;;;;;;29.50;11.63;;;2.50;99.90;;;;;;5035242;28;20026;-53
2024/03/08 06:13:41;;;;;;;30.33;12.75;;;2.50;99.90;;;;;;5034699;28;20017;-58
2024/03/08 06:16:08;;;;;;;22.58;11.75;;;2.50;99.90;;;;;;5035923;28;20064;-52
2024/03/08 06:18:36;;;;;;;25.58;11.80;;;2.50;99.90;;;;;;5035859;28;20021;-55
2024/03/08 06:21:05;;;;;;;33.30;12.50;;;2.50;99.90;;;;;;5036116;28;20397;-55
2024/03/08 06:23:38;;;;;;;26.90;11.82;;;2.50;99.90;;;;;;5050786;28;20029;-54
2024/03/08 06:26:07;;;;;;;25.20;11.20;;;2.50;99.90;;;;;;5036006;28;20136;-55
2024/03/08 06:28:34;;;;;;;28.88;11.77;;;2.50;99.90;;;;;;5035663;28;20447;-54
2024/03/08 06:31:00;;;;;;;22.95;11.80;;;2.50;99.90;;;;;;5035593;28;20025;-54
2024/03/08 06:33:29;;;;;;;39.80;13.15;;;2.50;99.90;;;;;;5035330;28;20045;-54
2024/03/08 06:35:58;;;;;;;25.98;10.75;;;2.50;99.90;;;;;;5035385;28;20025;-55
2024/03/08 06:38:26;;;;;;;22.30;10.85;;;2.50;99.90;;;;;;5049094;28;20029;-56
2024/03/08 06:40:54;;;;;;;24.23;10.68;;;2.50;99.90;;;;;;5055383;28;20031;-53
2024/03/08 06:43:20;;;;;;;24.85;11.02;;;2.60;99.90;;;;;;5035858;28;20116;-54
2024/03/08 06:45:48;;;;;;;29.17;11.60;;;2.60;99.90;;;;;;5035386;28;20538;-52
2024/03/08 06:48:15;;;;;;;25.95;12.13;;;2.60;99.90;;;;;;5035378;28;20105;-54
2024/03/08 06:50:45;;;;;;;21.88;10.98;;;2.70;99.90;;;;;;5049426;28;20413;-53
2024/03/08 06:53:12;;;;;;;26.48;11.63;;;2.70;99.90;;;;;;5054369;28;20029;-54
2024/03/08 06:55:38;;;;;;;28.75;11.63;;;2.70;99.90;;;;;;5055158;28;20450;-55
2024/03/08 06:58:04;;;;;;;28.95;11.32;;;2.70;99.90;;;;;;5054438;28;20486;-54
2024/03/08 07:00:30;;;;;;;29.98;12.40;;;2.70;99.90;;;;;;5055094;28;20036;-54
2024/03/08 07:03:00;;;;;;;25.70;12.18;;;2.80;99.90;;;;;;5037036;28;20112;-54
2024/03/08 07:05:27;;;;;;;28.40;12.23;;;2.80;99.90;;;;;;5035296;28;20021;-54
2024/03/08 07:07:54;;;;;;;25.50;12.07;;;2.90;99.90;;;;;;5035908;28;20025;-57
2024/03/08 07:10:26;;;;;;;28.92;12.27;;;2.90;99.90;;;;;;5034940;28;20021;-54
2024/03/08 07:12:53;;;;;;;24.85;11.23;;;3.00;99.90;;;;;;5035130;28;20473;-52
2024/03/08 07:15:19;;;;;;;34.50;12.40;;;3.10;99.90;;;;;;5041731;28;20021;-58
2024/03/08 07:17:46;;;;;;;31.67;11.57;;;3.10;99.90;;;;;;5038711;28;20124;-54
2024/03/08 07:20:13;;;;;;;28.23;11.60;;;3.20;99.90;;;;;;5035074;28;20021;-54
2024/03/08 07:22:39;;;;;;;30.27;11.87;;;3.20;99.90;;;;;;5045815;28;20247;-50
2024/03/08 07:25:21;;;;;;;26.77;13.10;;;3.20;99.90;;;;;;5054581;28;20104;-55
2024/03/08 07:27:51;;;;;;;30.58;11.93;;;3.30;99.90;;;;;;5053189;28;20111;-57
2024/03/08 07:30:52;;;;;;;24.73;11.95;;;3.40;99.90;;;;;;5051386;28;20017;-54
2024/03/08 07:33:03;;;;;;;30.17;12.05;;;3.40;99.90;;;;;;5034082;28;20553;-54
2024/03/08 07:35:29;;;;;;;28.48;11.27;;;3.40;99.90;;;;;;5034443;28;20026;-51
2024/03/08 07:37:55;;;;;;;27.38;11.45;;;3.40;99.90;;;;;;5040601;28;20029;-54
2024/03/08 07:40:21;;;;;;;30.40;12.32;;;3.40;99.90;;;;;;5052938;28;20047;-53
2024/03/08 07:42:47;;;;;;;27.20;11.85;;;3.50;99.90;;;;;;5049280;28;20037;-54
2024/03/08 07:45:13;;;;;;;25.50;11.25;;;3.50;99.90;;;;;;5032869;28;20099;-54
2024/03/08 07:47:40;;;;;;;23.60;11.82;;;3.60;99.90;;;;;;5038847;28;20021;-53
2024/03/08 07:50:08;;;;;;;33.60;12.20;;;3.70;99.90;;;;;;5045013;28;20022;-54
2024/03/08 07:52:36;;;;;;;26.42;12.23;;;3.70;99.90;;;;;;5034047;28;20100;-54
2024/03/08 07:55:05;;;;;;;25.55;12.10;;;3.70;99.90;;;;;;5037564;28;20052;-54
2024/03/08 07:57:32;;;;;;;26.00;11.40;;;3.80;99.90;;;;;;5060282;28;20033;-55
2024/03/08 07:59:58;;;;;;;24.33;11.13;;;3.90;99.90;;;;;;5052698;28;20094;-54
2024/03/08 08:02:24;;;;;;;27.30;12.65;;;4.00;99.90;;;;;;5035824;28;20032;-54
2024/03/08 08:04:49;;;;;;;24.25;11.95;;;4.10;99.90;;;;;;5033912;28;20393;-55
2024/03/08 08:07:15;;;;;;;26.38;11.05;;;4.10;99.90;;;;;;5035819;28;20024;-53
2024/03/08 08:09:42;;;;;;;31.80;11.98;;;4.20;99.90;;;;;;5053755;28;20040;-54
2024/03/08 08:12:11;;;;;;;24.27;11.25;;;4.20;99.90;;;;;;5053989;28;20096;-54
2024/03/08 08:14:38;;;;;;;27.92;11.43;;;4.30;99.90;;;;;;5033994;28;20470;-39
2024/03/08 08:17:05;;;;;;;29.10;12.45;;;4.30;99.90;;;;;;5033618;28;20036;-42
2024/03/08 08:19:31;;;;;;;27.77;11.57;;;4.40;99.90;;;;;;5032931;28;20486;-39
2024/03/08 08:21:58;;;;;;;25.08;12.23;;;4.50;99.90;;;;;;5044114;28;20473;-46
2024/03/08 08:24:24;;;;;;;27.20;12.27;;;4.60;99.90;;;;;;5052602;28;20107;-39
2024/03/08 08:26:50;;;;;;;25.60;10.75;;;4.60;99.90;;;;;;5053414;28;20021;-40
2024/03/08 08:29:16;;;;;;;27.58;10.70;;;4.80;99.90;;;;;;5050390;28;20025;-41
2024/03/08 08:31:42;;;;;;;20.42;11.65;;;4.80;99.90;;;;;;5053381;28;20025;-39
2024/03/08 08:34:11;;;;;;;24.63;11.35;;;4.80;99.90;;;;;;5053026;28;20045;-38
2024/03/08 08:36:40;;;;;;;31.25;12.15;;;4.90;99.90;;;;;;5046284;28;20083;-40
2024/03/08 08:39:12;;;;;;;27.67;11.32;;;5.00;99.90;;;;;;5045778;28;20020;-39
2024/03/08 08:41:38;;;;;;;25.48;12.43;;;5.20;99.90;;;;;;5037942;28;20033;-38
2024/03/08 08:44:03;;;;;;;21.73;10.52;;;5.30;99.90;;;;;;5040913;28;20132;-38
2024/03/08 08:46:29;;;;;;;25.63;12.50;;;5.40;99.90;;;;;;5033059;28;20018;-40
2024/03/08 08:48:56;;;;;;;24.35;12.52;;;5.30;99.90;;;;;;5051772;28;20017;-39
2024/03/08 08:51:22;;;;;;;25.38;11.52;;;5.50;99.90;;;;;;5047479;28;20726;-40
2024/03/08 08:53:48;;;;;;;26.70;11.63;;;5.50;99.90;;;;;;5044044;28;20442;-42
2024/03/08 08:56:15;;;;;;;25.73;10.75;;;5.60;99.90;;;;;;5033834;28;20123;-38
2024/03/08 08:58:45;;;;;;;32.40;11.15;;;5.70;99.90;;;;;;5033167;28;20029;-44
2024/03/08 09:01:11;;;;;;;25.80;12.23;;;5.70;99.90;;;;;;5042786;28;20450;-39
2024/03/08 09:03:37;;;;;;;26.80;11.18;;;5.80;99.90;;;;;;5048593;28;20090;-43
2024/03/08 09:06:04;;;;;;;23.10;11.27;;;5.90;99.90;;;;;;5045278;28;20470;-41
2024/03/08 09:08:30;;;;;;;22.95;10.75;;;5.90;99.90;;;;;;5043767;28;20369;-42
2024/03/08 09:10:56;;;;;;;28.98;11.80;;;6.00;99.90;;;;;;5032676;28;20021;-40
2024/03/08 09:13:22;;;;;;;24.05;10.88;;;6.10;99.90;;;;;;5045722;28;20032;-44
2024/03/08 09:15:48;;;;;;;23.67;12.35;;;6.30;99.90;;;;;;5042502;28;20049;-41
2024/03/08 09:18:14;;;;;;;28.50;11.25;;;6.50;99.90;;;;;;5032765;28;20067;-40
2024/03/08 09:20:41;;;;;;;29.20;11.70;;;6.60;99.90;;;;;;5033412;28;20156;-53
2024/03/08 09:23:08;;;;;;;27.20;11.80;;;6.70;99.90;;;;;;5052569;28;20508;-54
2024/03/08 09:25:33;;;;;;;23.83;11.43;;;6.70;99.90;;;;;;5052674;28;20486;-54
2024/03/08 09:27:59;;;;;;;24.88;11.98;;;6.80;99.90;;;;;;5052307;28;20024;-54
2024/03/08 09:30:25;;;;;;;26.20;12.73;;;6.80;99.90;;;;;;5052288;28;20028;-54
2024/03/08 09:32:51;;;;;;;29.95;12.80;;;6.90;99.90;;;;;;5051719;28;20028;-57
2024/03/08 09:35:17;;;;;;;22.00;10.75;;;6.90;99.90;;;;;;5052541;28;20381;-54
2024/03/08 09:37:42;;;;;;;21.65;12.07;;;7.00;99.90;;;;;;5035142;28;20498;-51
2024/03/08 09:40:15;;;;;;;21.80;11.20;;;7.10;99.90;;;;;;5033392;28;20437;-62
2024/03/08 09:42:42;;;;;;;25.23;11.43;;;7.30;99.90;;;;;;5032483;28;20525;-54
2024/03/08 09:45:12;;;;;;;24.65;11.93;;;7.30;99.90;;;;;;5030735;28;20363;-55
2024/03/08 09:47:40;;;;;;;22.20;10.65;;;7.30;99.90;;;;;;5032253;28;20075;-54
2024/03/08 09:50:09;;;;;;;21.70;10.45;;;7.40;99.90;;;;;;5040548;28;20052;-56
2024/03/08 09:52:39;;;;;;;23.02;10.95;;;7.50;99.90;;;;;;5052098;28;20385;-49
2024/03/08 09:55:06;;;;;;;26.85;12.00;;;7.50;99.90;;;;;;5052040;28;20493;-51
2024/03/08 09:57:33;;;;;;;26.33;12.20;;;7.60;99.90;;;;;;5052293;28;20135;-49
2024/03/08 09:59:59;;;;;;;25.57;10.30;;;7.50;99.90;;;;;;5051976;28;20017;-52
2024/03/08 10:02:25;;;;;;;21.92;10.85;;;7.50;99.90;;;;;;5052163;28;20393;-55
2024/03/08 10:04:53;;;;;;;22.95;10.25;;;7.60;99.90;;;;;;5052197;28;20028;-55
2024/03/08 10:07:19;;;;;;;25.17;10.95;;;7.50;99.90;;;;;;5040152;28;20476;-55
2024/03/08 10:09:50;;;;;;;22.25;11.23;;;7.50;99.90;;;;;;5040972;28;20029;-55
2024/03/08 10:12:19;;;;;;;26.30;11.23;;;7.60;99.90;;;;;;5051920;28;20036;-53
2024/03/08 10:14:46;;;;;;;24.02;10.05;;;7.80;99.90;;;;;;5052111;28;20558;-54
2024/03/08 10:17:12;;;;;;;26.70;11.13;;;7.80;99.90;;;;;;5052122;28;20021;-56
2024/03/08 10:19:38;;;;;;;21.15;10.38;;;8.00;99.90;;;;;;5051834;28;20533;-53
2024/03/08 10:22:05;;;;;;;23.30;11.25;;;8.20;99.90;;;;;;5040114;28;20064;-54
2024/03/08 10:24:33;;;;;;;23.90;11.10;;;8.30;99.90;;;;;;5038266;28;20478;-56
2024/03/08 10:27:01;;;;;;;23.30;11.10;;;8.50;99.90;;;;;;5042671;28;20458;-53
2024/03/08 10:29:28;;;;;;;21.98;11.02;;;8.50;99.90;;;;;;5030724;28;20107;-52
2024/03/08 10:31:55;;;;;;;17.13;9.50;;;8.50;99.90;;;;;;5031601;28;20030;-52
2024/03/08 10:34:23;;;;;;;21.23;10.37;;;8.50;99.90;;;;;;5031598;28;20092;-54
2024/03/08 10:36:51;;;;;;;23.08;10.30;;;8.60;99.90;;;;;;5032164;28;20474;-54
2024/03/08 10:39:25;;;;;;;27.92;10.00;;;8.80;99.90;;;;;;5031729;28;20021;-53
2024/03/08 10:41:59;;;;;;;18.58;9.85;;;8.70;99.90;;;;;;5033669;28;20017;-55
2024/03/08 10:44:34;;;;;;;23.88;10.45;;;8.80;99.90;;;;;;5049638;28;20028;-53
2024/03/08 10:47:09;;;;;;;27.25;10.95;;;9.00;99.90;;;;;;5047132;28;20504;-52
2024/03/08 10:49:43;;;;;;;20.60;10.32;;;9.10;99.90;;;;;;5054004;28;20051;-55
2024/03/08 10:52:11;;;;;;;18.98;9.52;;;9.20;99.90;;;;;;5055564;28;20029;-55
2024/03/08 10:54:40;;;;;;;20.75;10.23;;;9.20;99.90;;;;;;5037387;28;20105;-55
2024/03/08 10:57:08;;;;;;;21.13;10.13;;;9.20;99.90;;;;;;5035755;28;20057;-52
2024/03/08 10:59:35;;;;;;;21.65;10.13;;;9.20;99.90;;;;;;5035239;28;20124;-54
2024/03/08 11:02:01;;;;;;;28.55;10.82;;;9.30;99.90;;;;;;5036482;28;20032;-50
2024/03/08 11:04:29;;;;;;;16.52;9.32;;;9.50;99.90;;;;;;5043819;28;20019;-52
2024/03/08 11:07:16;;;;;;;23.13;10.98;;;9.60;99.90;;;;;;5055237;28;20029;-55
2024/03/08 11:09:45;;;;;;;17.90;8.82;;;9.80;99.90;;;;;;5038659;28;20017;-54
2024/03/08 11:12:21;;;;;;;18.85;9.77;;;9.90;99.90;;;;;;5036429;28;20037;-55
2024/03/08 11:14:49;;;;;;;15.15;8.73;;;10.00;99.90;;;;;;5054304;28;20028;-53
2024/03/08 11:17:37;;;;;;;21.27;9.25;;;10.10;99.90;;;;;;5054664;28;20449;-52
2024/03/08 11:20:18;;;;;;;17.20;8.98;;;10.10;99.90;;;;;;5030065;28;20087;-54
2024/03/08 11:22:55;;;;;;;17.75;9.05;;;10.30;99.90;;;;;;5037659;28;20474;-52
2024/03/08 11:25:39;;;;;;;18.60;9.02;;;10.50;99.90;;;;;;5034605;28;20028;-55
2024/03/08 11:28:16;;;;;;;15.82;8.05;;;10.30;99.90;;;;;;5034580;28;20389;-54
2024/03/08 11:31:01;;;;;;;17.92;9.27;;;10.30;99.90;;;;;;5034839;28;20025;-53
2024/03/08 11:33:31;;;;;;;15.70;8.32;;;10.30;99.90;;;;;;5049167;28;20379;-55
2024/03/08 11:36:24;;;;;;;18.77;9.73;;;10.50;99.90;;;;;;5035032;28;20560;-54
2024/03/08 11:38:52;;;;;;;23.10;9.82;;;10.50;99.90;;;;;;5034603;28;20107;-52
2024/03/08 11:41:20;;;;;;;22.50;8.73;;;10.60;99.90;;;;;;5034424;28;20029;-54
2024/03/08 11:43:47;;;;;;;17.83;8.30;;;10.60;99.90;;;;;;5036775;28;20029;-54
2024/03/08 11:46:15;;;;;;;15.30;8.63;;;10.50;99.90;;;;;;5054089;28;20017;-51
2024/03/08 11:48:44;;;;;;;18.17;8.10;;;10.50;99.90;;;;;;5048467;28;20025;-53
2024/03/08 11:51:14;;;;;;;14.30;8.00;;;10.50;99.90;;;;;;5052554;28;20028;-52
2024/03/08 11:53:40;;;;;;;18.58;8.82;;;10.50;99.90;;;;;;5036958;28;20028;-54
2024/03/08 11:56:14;;;;;;;18.42;9.52;;;10.60;99.90;;;;;;5033786;28;20100;-53
2024/03/08 11:58:40;;;;;;;18.67;9.27;;;10.70;99.90;;;;;;5034469;28;20489;-56
2024/03/08 12:01:09;;;;;;;15.98;8.27;;;10.80;99.90;;;;;;5034440;28;20536;-54
2024/03/08 12:03:35;;;;;;;15.85;8.77;;;11.00;99.90;;;;;;5034317;28;20536;-55
2024/03/08 12:06:01;;;;;;;17.08;8.30;;;11.00;99.90;;;;;;5034434;28;20025;-54
2024/03/08 12:08:28;;;;;;;14.80;8.27;;;11.00;99.90;;;;;;5033862;28;20013;-53
2024/03/08 12:10:59;;;;;;;17.23;9.43;;;11.20;99.90;;;;;;5034353;28;20051;-59
2024/03/08 12:13:29;;;;;;;18.58;7.70;;;11.30;99.90;;;;;;5033949;28;20478;-52
2024/03/08 12:16:06;;;;;;;13.20;7.40;;;11.30;99.90;;;;;;5033672;28;20105;-55
2024/03/08 12:18:38;;;;;;;14.80;7.47;;;11.50;99.90;;;;;;5033575;28;20060;-54
2024/03/08 12:21:14;;;;;;;16.45;7.60;;;11.50;99.90;;;;;;5033540;28;20032;-56
2024/03/08 12:23:39;;;;;;;13.52;7.32;;;11.50;99.90;;;;;;5046707;28;20033;-52
2024/03/08 12:26:32;;;;;;;20.02;7.88;;;11.70;99.90;;;;;;5052538;28;20028;-55
2024/03/08 12:29:27;;;;;;;19.65;7.35;;;11.80;99.90;;;;;;5053293;28;20512;-54
2024/03/08 12:32:05;;;;;;;12.52;7.70;;;11.70;99.90;;;;;;5053513;28;20513;-55
2024/03/08 12:34:31;;;;;;;14.32;7.75;;;11.60;99.90;;;;;;5041296;28;20038;-54
2024/03/08 12:36:58;;;;;;;18.52;8.57;;;11.60;99.90;;;;;;5033244;28;20600;-53
2024/03/08 12:39:26;;;;;;;16.52;7.40;;;11.70;99.90;;;;;;5034784;28;20091;-54
2024/03/08 12:41:54;;;;;;;14.45;7.85;;;11.80;99.90;;;;;;5033121;28;20500;-54